createdAt,value
2023-03-10T00:00:39.532Z,99.90
2023-03-10T00:05:42.257Z,99.90
2023-03-10T00:10:44.991Z,99.90
2023-03-10T00:15:49.491Z,99.90
2023-03-10T00:20:53.597Z,99.90
2023-03-10T00:25:58.375Z,99.90
2023-03-10T00:31:07.716Z,99.90
2023-03-10T00:36:26.925Z,99.90
2023-03-10T00:41:32.785Z,99.90
2023-03-10T00:46:38.687Z,99.90
2023-03-10T00:51:41.517Z,99.90
2023-03-10T00:56:44.197Z,99.90
2023-03-10T01:01:46.999Z,99.90
2023-03-10T01:06:49.660Z,99.90
2023-03-10T01:11:52.317Z,99.90
2023-03-10T01:16:55.000Z,99.90
2023-03-10T01:21:57.799Z,99.90
2023-03-10T01:27:00.398Z,99.90
2023-03-10T01:32:03.024Z,99.90
2023-03-10T01:37:06.818Z,99.90
2023-03-10T01:42:11.071Z,99.90
2023-03-10T01:47:13.740Z,99.90
2023-03-10T01:52:23.555Z,99.90
2023-03-10T01:57:32.493Z,99.90
2023-03-10T02:02:37.210Z,99.90
2023-03-10T02:07:41.510Z,99.90
2023-03-10T02:12:44.166Z,99.90
2023-03-10T02:17:48.623Z,99.90
2023-03-10T02:22:51.433Z,99.90
2023-03-10T02:27:54.823Z,99.90
2023-03-10T02:33:01.787Z,99.90
2023-03-10T02:38:05.360Z,99.90
2023-03-10T02:43:18.540Z,99.90
2023-03-10T02:48:30.346Z,99.90
2023-03-10T02:53:33.653Z,99.90
2023-03-10T02:58:36.875Z,99.90
2023-03-10T03:03:42.925Z,99.90
2023-03-10T03:08:46.973Z,99.90
2023-03-10T03:13:52.376Z,99.90
2023-03-10T03:18:55.663Z,99.90
2023-03-10T03:23:59.776Z,99.90
2023-03-10T03:29:02.539Z,99.90
2023-03-10T03:34:09.795Z,99.90
2023-03-10T03:39:17.543Z,99.90
2023-03-10T03:44:23.964Z,99.90
2023-03-10T03:49:27.983Z,99.90
2023-03-10T03:54:31.028Z,99.90
2023-03-10T03:59:34.201Z,99.90
2023-03-10T04:04:37.035Z,99.90
2023-03-10T04:09:41.432Z,99.90
2023-03-10T04:14:44.433Z,99.90
2023-03-10T04:19:54.196Z,99.90
2023-03-10T04:25:06.237Z,99.90
2023-03-10T04:30:13.857Z,99.90
2023-03-10T04:35:20.322Z,99.90
2023-03-10T04:40:23.147Z,99.90
2023-03-10T04:45:27.019Z,99.90
2023-03-10T04:50:30.332Z,99.90
2023-03-10T04:55:33.451Z,99.90
2023-03-10T05:00:47.392Z,99.90
2023-03-10T05:05:56.325Z,99.90
2023-03-10T05:10:59.429Z,99.90
2023-03-10T05:16:02.308Z,99.90
2023-03-10T05:21:05.659Z,99.90
2023-03-10T05:26:11.165Z,99.90
2023-03-10T05:31:17.291Z,99.90
2023-03-10T05:36:23.479Z,99.90
2023-03-10T05:41:26.530Z,99.90
2023-03-10T05:46:32.917Z,99.90
2023-03-10T05:51:35.877Z,99.90
2023-03-10T05:56:39.483Z,99.90
2023-03-10T06:01:42.753Z,99.90
2023-03-10T06:06:45.462Z,99.90
2023-03-10T06:11:48.203Z,99.90
2023-03-10T06:16:53.450Z,99.90
2023-03-10T06:21:56.092Z,99.90
2023-03-10T06:26:58.800Z,99.90
2023-03-10T06:32:01.530Z,99.90
2023-03-10T06:37:04.214Z,99.90
2023-03-10T06:42:09.022Z,99.90
2023-03-10T06:47:12.051Z,99.90
2023-03-10T06:52:14.695Z,99.90
2023-03-10T06:57:20.888Z,99.90
2023-03-10T07:02:24.421Z,99.90
2023-03-10T07:07:28.735Z,99.90
2023-03-10T07:12:31.340Z,99.90
2023-03-10T07:17:33.962Z,95.50
2023-03-10T07:22:36.574Z,87.30
2023-03-10T07:27:39.314Z,71.80
2023-03-10T07:32:42.161Z,69.10
2023-03-10T07:37:44.834Z,75.40
2023-03-10T07:42:47.606Z,69.40
2023-03-10T07:47:53.574Z,58.10
2023-03-10T07:52:56.542Z,56.30
2023-03-10T07:58:00.732Z,52.50
2023-03-10T08:03:03.562Z,55.90
2023-03-10T08:08:06.543Z,58.10
2023-03-10T08:13:09.241Z,52.10
2023-03-10T08:18:12.238Z,46.50
2023-03-10T08:23:14.991Z,42.20
2023-03-10T08:28:18.250Z,46.90
2023-03-10T08:33:22.293Z,42.20
2023-03-10T08:38:25.010Z,41.50
2023-03-10T08:43:27.794Z,41.80
2023-03-10T08:48:31.225Z,39.00
2023-03-10T08:53:36.088Z,37.40
2023-03-10T08:58:39.110Z,35.80
2023-03-10T09:03:44.064Z,32.60
2023-03-10T09:08:48.665Z,33.90
2023-03-10T09:13:51.719Z,36.20
2023-03-10T09:18:55.722Z,38.90
2023-03-10T09:23:59.310Z,40.60
2023-03-10T09:29:03.819Z,41.80
2023-03-10T09:34:08.543Z,42.30
2023-03-10T09:39:11.912Z,43.40
2023-03-10T09:44:38.992Z,42.80
2023-03-10T09:50:29.020Z,43.00
2023-03-10T09:55:47.734Z,44.60
2023-03-10T10:00:50.955Z,42.70
2023-03-10T10:05:55.516Z,41.90
2023-03-10T10:11:00.350Z,36.70
2023-03-10T10:16:42.709Z,35.80
2023-03-10T10:22:03.183Z,37.50
2023-03-10T10:27:06.375Z,36.20
2023-03-10T10:32:09.394Z,38.50
2023-03-10T10:37:36.244Z,38.60
2023-03-10T10:42:54.225Z,36.20
2023-03-10T10:47:57.501Z,35.40
2023-03-10T10:53:20.781Z,36.90
2023-03-10T10:58:30.135Z,34.70
2023-03-10T11:03:48.176Z,34.00
2023-03-10T11:08:52.416Z,33.70
2023-03-10T11:14:13.197Z,32.50
2023-03-10T11:19:25.204Z,34.80
2023-03-10T11:24:38.450Z,34.30
2023-03-10T11:29:47.144Z,34.20
2023-03-10T11:34:54.094Z,28.90
2023-03-10T11:40:28.278Z,26.60
2023-03-10T11:45:53.030Z,27.50
2023-03-10T11:51:01.685Z,26.50
2023-03-10T11:56:06.226Z,26.20
2023-03-10T12:01:12.229Z,26.60
2023-03-10T12:06:20.943Z,27.00
2023-03-10T12:11:27.364Z,26.60
2023-03-10T12:16:38.200Z,26.60
2023-03-10T12:21:41.068Z,27.30
2023-03-10T12:26:45.115Z,25.10
2023-03-10T12:31:53.855Z,24.50
2023-03-10T12:37:04.695Z,25.70
2023-03-10T12:42:28.747Z,27.50
2023-03-10T12:47:55.962Z,27.20
2023-03-10T12:53:28.193Z,28.30
2023-03-10T12:58:31.471Z,27.10
2023-03-10T13:03:44.338Z,26.30
2023-03-10T13:08:59.425Z,27.20
2023-03-10T13:14:05.715Z,27.50
2023-03-10T13:19:21.041Z,29.10
2023-03-10T13:24:32.623Z,30.90
2023-03-10T13:29:35.469Z,31.90
2023-03-10T13:34:38.135Z,31.90
2023-03-10T13:39:41.516Z,32.20
2023-03-10T13:44:44.851Z,32.30
2023-03-10T13:50:01.730Z,30.60
2023-03-10T13:55:15.889Z,31.30
2023-03-10T14:00:24.648Z,31.90
2023-03-10T14:06:12.834Z,31.50
2023-03-10T14:11:45.134Z,31.10
2023-03-10T14:17:09.605Z,31.50
2023-03-10T14:22:44.080Z,31.70
2023-03-10T14:27:56.326Z,32.70
2023-03-10T14:33:00.976Z,32.40
2023-03-10T14:38:03.723Z,33.60
2023-03-10T14:43:06.699Z,33.30
2023-03-10T14:48:18.641Z,33.30
2023-03-10T14:53:26.928Z,33.40
2023-03-10T14:58:37.053Z,32.40
2023-03-10T15:03:39.792Z,33.40
2023-03-10T15:08:42.791Z,33.70
2023-03-10T15:13:45.977Z,34.40
2023-03-10T15:18:49.557Z,34.80
2023-03-10T15:23:52.334Z,35.60
2023-03-10T15:28:55.230Z,37.20
2023-03-10T15:33:57.900Z,37.00
2023-03-10T15:39:00.609Z,38.40
2023-03-10T15:44:03.719Z,39.20
2023-03-10T15:49:07.026Z,40.50
2023-03-10T15:54:12.680Z,41.40
2023-03-10T15:59:15.415Z,42.50
2023-03-10T16:04:18.913Z,43.10
2023-03-10T16:09:21.602Z,44.30
2023-03-10T16:14:28.692Z,45.40
2023-03-10T16:19:31.457Z,46.00
2023-03-10T16:24:34.137Z,48.10
2023-03-10T16:29:37.899Z,48.60
2023-03-10T16:34:40.719Z,50.30
2023-03-10T16:39:43.687Z,52.50
2023-03-10T16:44:46.471Z,53.00
2023-03-10T16:49:49.438Z,53.30
2023-03-10T16:54:58.323Z,54.80
2023-03-10T17:00:01.147Z,54.30
2023-03-10T17:05:03.933Z,55.30
2023-03-10T17:10:07.004Z,58.00
2023-03-10T17:15:10.468Z,71.30
2023-03-10T17:20:14.195Z,90.40
2023-03-10T17:25:16.833Z,97.40
2023-03-10T17:30:20.317Z,99.90
2023-03-10T17:35:23.285Z,99.90
2023-03-10T17:40:26.102Z,99.90
2023-03-10T17:45:28.877Z,99.90
2023-03-10T17:50:31.624Z,99.90
2023-03-10T17:55:36.044Z,99.90
2023-03-10T18:00:39.056Z,99.90
2023-03-10T18:05:43.846Z,99.90
2023-03-10T18:10:46.469Z,99.90
2023-03-10T18:15:51.418Z,99.90
2023-03-10T18:20:54.536Z,99.90
2023-03-10T18:25:59.139Z,99.90
2023-03-10T18:31:03.209Z,99.90
2023-03-10T18:36:07.764Z,99.90
2023-03-10T18:41:11.019Z,99.90
2023-03-10T18:46:14.226Z,99.90
2023-03-10T18:51:17.002Z,99.90
2023-03-10T18:56:20.173Z,99.90
2023-03-10T19:01:23.359Z,99.90
2023-03-10T19:06:33.751Z,99.90
2023-03-10T19:11:38.580Z,99.90
2023-03-10T19:16:43.032Z,99.90
2023-03-10T19:21:45.966Z,99.90
2023-03-10T19:26:49.897Z,99.90
2023-03-10T19:31:52.602Z,99.90
2023-03-10T19:36:55.348Z,99.90
2023-03-10T19:41:58.023Z,99.90
2023-03-10T19:47:00.986Z,99.90
2023-03-10T19:52:04.093Z,99.90
2023-03-10T19:57:13.121Z,99.90
2023-03-10T20:02:17.578Z,99.90
2023-03-10T20:07:20.485Z,99.90
2023-03-10T20:12:23.274Z,99.90
2023-03-10T20:17:26.209Z,99.90
2023-03-10T20:22:29.220Z,99.90
2023-03-10T20:27:32.073Z,99.90
2023-03-10T20:32:35.648Z,99.90
2023-03-10T20:37:38.969Z,99.90
2023-03-10T20:42:42.052Z,99.90
2023-03-10T20:47:45.192Z,99.90
2023-03-10T20:52:48.463Z,99.90
2023-03-10T20:57:53.027Z,99.90
2023-03-10T21:02:57.476Z,99.90
2023-03-10T21:08:00.329Z,99.90
2023-03-10T21:13:03.258Z,99.90
2023-03-10T21:18:06.719Z,99.90
2023-03-10T21:23:09.591Z,99.90
2023-03-10T21:28:12.349Z,99.90
2023-03-10T21:33:15.190Z,99.90
2023-03-10T21:38:18.058Z,99.90
2023-03-10T21:43:20.948Z,99.90
2023-03-10T21:48:23.738Z,99.90
2023-03-10T21:53:27.099Z,99.90
2023-03-10T21:58:29.898Z,99.90
2023-03-10T22:03:34.208Z,99.90
2023-03-10T22:08:38.541Z,99.90
2023-03-10T22:13:41.827Z,99.90
2023-03-10T22:18:44.862Z,99.90
2023-03-10T22:23:47.592Z,99.90
2023-03-10T22:28:50.212Z,99.90
2023-03-10T22:33:52.864Z,99.90
2023-03-10T22:38:55.634Z,99.90
2023-03-10T22:43:58.340Z,99.90
2023-03-10T22:49:00.942Z,99.90
2023-03-10T22:54:03.664Z,99.90
2023-03-10T22:59:06.374Z,99.90
2023-03-10T23:04:09.171Z,99.90
2023-03-10T23:09:12.194Z,99.90
2023-03-10T23:14:15.098Z,99.90
2023-03-10T23:19:17.705Z,99.90
2023-03-10T23:24:20.530Z,99.90
2023-03-10T23:29:23.466Z,99.90
2023-03-10T23:34:26.110Z,99.90
2023-03-10T23:39:28.743Z,99.90
2023-03-10T23:44:31.392Z,99.90
2023-03-10T23:49:34.145Z,99.90
2023-03-10T23:54:36.757Z,99.90
2023-03-10T23:59:39.556Z,99.90
